Terminal Aerodrome Forecast
Issued by NWS

Home | Current Version | Previous Version | Text Only | Print | Product List | Glossary On
Versions: 1 2 3 4 5 6 7 8 9 10 11 12 13 14 15 16 17 18
301
FTUS43 KPAH 270520
TAFCGI
TAF
KCGI 270520Z 2706/2806 17008KT P6SM VCSH BKN045 OVC130
      TEMPO 2712/2716 5SM -TSRA BR BKN012 OVC030CB
     FM271600 15012KT P6SM SCT120
     FM272030 17012G22KT P6SM VCSH BKN028=

USA.gov is the U.S. government's official web portal to all federal, state and local government web resources and services.